Portada
METAR-TAF:

METAR-TAF

Aeropuertos :

Fuerteventura, España

Aeropuerto de Fuerteventura

latitud: 28-27N, longitud: 013-52W, altitud: 22 m

Observación

El informe se hizo hace 20 minutos, a las 03:00 UTC
Viento 10 kt del norte-noreste
Temperatura 21°C
Humedad 73%
Presión 1014 hPa
Visibilidad 10 km o más
sin nubes por debajo de 1500 m y sin presencia de cumulonimbus.

METAR: GCFV 230300Z AUTO 02010KT CAVOK 21/16 Q1014

Hora: 04:20 (03:20 UTC)

Pronóstico

El informe se hizo hace 1 hora y 20 minutos, a las 02:00 UTC
Pronóstico válido del 23 a las 03 UTC al 24 a las 03 UTC
Viento 13 kt del norte
Visibilidad 10 km o más
Escasas nubes a una altura de 1500 ft
Temporalmente
del 23 a las 08 UTC al 23 a las 19 UTC
Viento 15 kt del noreste

TAF: GCFV 230200Z 2303/2403 35013KT 9999 FEW015 TX29/2314Z TN21/2306Z TEMPO 2308/2319 05015KT

Observaciones y pronósticos meteorológicos de más de 4000 aeropuertos (mensajes METAR y TAF).

Los puntos amarillos y rojos representan las estaciones disponibles.

Ponga el ratón en el punto deseado para ver el nombre de la estación.

Haga clic para ver las observaciones y los pronósticos meteorológicos.

Para cambiar el mapa : haga clic en los botones verdes con una cruz de color negro para hacer un zoom, en el botón verde con un guión para alejar o en las flechas verdes para mapas adyacentes.


METAR-TAF: